Terminal Aerodrome Forecast
Issued by NWS Charleston, WV

Home | Current Version | Previous Version | Text Only | Print | Product List | Glossary On
Versions: 1 2 3 4 5 6 7 8 9 10 11 12 13 14 15 16 17 18 19 20 21 22 23 24 25
000
FTUS41 KRLX 240500
TAFEKN
TAF
KEKN 240527Z 2406/2506 00000KT P6SM SKC
     FM241600 33004KT P6SM SCT100
     FM242000 02005KT P6SM BKN090
     FM250000 00000KT P6SM SCT250
     FM250500 12004KT P6SM SCT100=

USA.gov is the U.S. government's official web portal to all federal, state and local government web resources and services.